createdAt,value
2019-05-05T00:00:15.971Z,22.00
2019-05-05T00:02:47.028Z,22.00
2019-05-05T00:05:35.227Z,22.00
2019-05-05T00:08:04.987Z,22.00
2019-05-05T00:10:51.029Z,22.00
2019-05-05T00:13:34.664Z,22.00
2019-05-05T00:16:21.718Z,22.00
2019-05-05T00:18:54.145Z,22.00
2019-05-05T00:21:24.412Z,22.00
2019-05-05T00:23:55.324Z,22.00
2019-05-05T00:26:24.795Z,22.00
2019-05-05T00:28:55.406Z,22.00
2019-05-05T00:31:24.811Z,22.00
2019-05-05T00:33:54.502Z,22.00
2019-05-05T00:36:24.629Z,22.00
2019-05-05T00:38:55.208Z,22.00
2019-05-05T00:41:25.879Z,22.00
2019-05-05T00:43:55.501Z,22.00
2019-05-05T00:46:35.244Z,22.00
2019-05-05T00:49:05.396Z,22.00
2019-05-05T00:51:34.888Z,22.00
2019-05-05T00:54:04.478Z,22.00
2019-05-05T00:56:34.263Z,22.00
2019-05-05T00:59:05.314Z,22.00
2019-05-05T01:01:52.680Z,22.00
2019-05-05T01:04:25.956Z,22.00
2019-05-05T01:06:55.214Z,22.00
2019-05-05T01:09:28.991Z,22.00
2019-05-05T01:11:59.236Z,22.00
2019-05-05T01:14:28.397Z,22.00
2019-05-05T01:16:57.846Z,22.00
2019-05-05T01:19:27.065Z,22.00
2019-05-05T01:21:56.281Z,22.00
2019-05-05T01:24:25.457Z,22.00
2019-05-05T01:26:55.148Z,22.00
2019-05-05T01:29:25.269Z,22.00
2019-05-05T01:31:56.276Z,22.00
2019-05-05T01:34:34.872Z,22.00
2019-05-05T01:37:05.804Z,21.90
2019-05-05T01:39:36.736Z,21.90
2019-05-05T01:42:10.340Z,21.90
2019-05-05T01:44:39.557Z,21.90
2019-05-05T01:47:08.814Z,21.90
2019-05-05T01:49:37.957Z,22.00
2019-05-05T01:52:07.136Z,21.90
2019-05-05T01:54:36.334Z,21.90
2019-05-05T01:57:05.660Z,22.00
2019-05-05T01:59:35.448Z,21.90
2019-05-05T02:02:05.011Z,21.90
2019-05-05T02:04:34.430Z,22.00
2019-05-05T02:07:05.426Z,21.90
2019-05-05T02:09:35.362Z,21.90
2019-05-05T02:12:05.281Z,22.00
2019-05-05T02:14:35.309Z,21.90
2019-05-05T02:17:05.159Z,21.90
2019-05-05T02:19:35.039Z,21.80
2019-05-05T02:22:05.262Z,21.90
2019-05-05T02:24:35.304Z,21.90
2019-05-05T02:27:05.290Z,21.90
2019-05-05T02:29:54.887Z,21.90
2019-05-05T02:32:28.381Z,21.90
2019-05-05T02:34:59.240Z,21.90
2019-05-05T02:37:28.452Z,21.90
2019-05-05T02:40:02.910Z,21.90
2019-05-05T02:42:28.579Z,21.90
2019-05-05T02:44:59.733Z,21.90
2019-05-05T02:47:35.885Z,21.90
2019-05-05T02:50:06.253Z,21.90
2019-05-05T02:52:36.334Z,21.90
2019-05-05T02:55:06.136Z,21.90
2019-05-05T02:57:36.476Z,21.90
2019-05-05T03:00:19.792Z,21.90
2019-05-05T03:02:49.084Z,21.90
2019-05-05T03:05:18.221Z,21.80
2019-05-05T03:07:47.391Z,21.80
2019-05-05T03:10:16.538Z,21.80
2019-05-05T03:12:45.726Z,21.90
2019-05-05T03:15:24.501Z,21.80
2019-05-05T03:17:53.837Z,21.80
2019-05-05T03:20:23.802Z,21.90
2019-05-05T03:22:53.887Z,21.90
2019-05-05T03:25:24.187Z,21.80
2019-05-05T03:27:53.828Z,21.80
2019-05-05T03:30:26.044Z,21.90
2019-05-05T03:32:55.957Z,21.90
2019-05-05T03:35:24.870Z,21.80
2019-05-05T03:37:54.507Z,21.90
2019-05-05T03:40:25.439Z,21.80
2019-05-05T03:42:58.781Z,21.80
2019-05-05T03:45:34.203Z,21.80
2019-05-05T03:48:04.604Z,21.80
2019-05-05T03:50:34.107Z,21.80
2019-05-05T03:53:04.963Z,21.80
2019-05-05T03:55:34.676Z,21.80
2019-05-05T03:58:04.157Z,21.80
2019-05-05T04:01:00.951Z,21.80
2019-05-05T04:03:30.183Z,21.80
2019-05-05T04:06:01.004Z,21.80
2019-05-05T04:08:31.123Z,21.80
2019-05-05T04:11:00.324Z,21.80
2019-05-05T04:13:29.577Z,21.80
2019-05-05T04:16:16.789Z,21.80
2019-05-05T04:18:54.205Z,21.80
2019-05-05T04:21:31.195Z,21.80
2019-05-05T04:23:54.474Z,21.80
2019-05-05T04:26:23.637Z,21.80
2019-05-05T04:28:54.165Z,21.80
2019-05-05T04:31:24.149Z,21.80
2019-05-05T04:33:53.897Z,21.70
2019-05-05T04:36:23.606Z,21.80
2019-05-05T04:38:54.581Z,21.70
2019-05-05T04:41:24.572Z,21.70
2019-05-05T04:43:54.697Z,21.80
2019-05-05T04:46:24.592Z,21.70
2019-05-05T04:49:03.427Z,21.80
2019-05-05T04:51:47.674Z,21.80
2019-05-05T04:54:14.174Z,21.80
2019-05-05T04:56:44.796Z,21.70
2019-05-05T04:59:14.766Z,21.80
2019-05-05T05:01:44.385Z,21.70
2019-05-05T05:04:15.227Z,21.80
2019-05-05T05:06:49.991Z,21.80
2019-05-05T05:09:19.175Z,21.70
2019-05-05T05:11:48.396Z,21.70
2019-05-05T05:14:17.658Z,21.70
2019-05-05T05:16:47.507Z,21.70
2019-05-05T05:19:16.656Z,21.70
2019-05-05T05:21:58.276Z,21.80
2019-05-05T05:24:16.685Z,21.70
2019-05-05T05:26:45.871Z,21.70
2019-05-05T05:29:15.228Z,21.70
2019-05-05T05:31:44.599Z,21.70
2019-05-05T05:34:14.816Z,21.70
2019-05-05T05:36:44.456Z,21.70
2019-05-05T05:39:15.336Z,21.70
2019-05-05T05:41:45.463Z,21.70
2019-05-05T05:44:24.478Z,21.70
2019-05-05T05:46:54.758Z,21.70
2019-05-05T05:49:25.624Z,21.70
2019-05-05T05:51:54.805Z,21.70
2019-05-05T05:54:24.013Z,21.70
2019-05-05T05:56:53.815Z,21.70
2019-05-05T05:59:24.706Z,21.70
2019-05-05T06:02:08.397Z,21.70
2019-05-05T06:04:24.866Z,21.70
2019-05-05T06:06:54.399Z,21.70
2019-05-05T06:09:23.833Z,21.70
2019-05-05T06:11:54.202Z,21.70
2019-05-05T06:14:24.683Z,21.70
2019-05-05T06:16:54.101Z,21.70
2019-05-05T06:19:24.643Z,21.70
2019-05-05T06:21:54.375Z,21.70
2019-05-05T06:24:24.093Z,21.70
2019-05-05T06:26:54.730Z,21.70
2019-05-05T06:29:24.072Z,21.70
2019-05-05T06:31:53.764Z,21.70
2019-05-05T06:34:24.733Z,21.70
2019-05-05T06:36:53.878Z,21.70
2019-05-05T06:39:24.134Z,21.70
2019-05-05T06:42:04.542Z,21.70
2019-05-05T06:44:38.364Z,21.70
2019-05-05T06:47:09.206Z,21.70
2019-05-05T06:49:38.364Z,21.70
2019-05-05T06:52:07.523Z,21.70
2019-05-05T06:54:36.734Z,21.60
2019-05-05T06:57:06.601Z,21.70
2019-05-05T06:59:35.756Z,21.70
2019-05-05T07:02:04.976Z,21.70
2019-05-05T07:04:34.214Z,21.70
2019-05-05T07:07:05.180Z,21.70
2019-05-05T07:09:34.549Z,21.70
2019-05-05T07:12:04.581Z,21.70
2019-05-05T07:14:34.150Z,21.70
2019-05-05T07:17:05.180Z,21.60
2019-05-05T07:19:34.609Z,21.70
2019-05-05T07:22:04.201Z,21.70
2019-05-05T07:24:34.456Z,21.60
2019-05-05T07:27:04.792Z,21.60
2019-05-05T07:29:34.407Z,21.60
2019-05-05T07:32:04.125Z,21.60
2019-05-05T07:34:54.642Z,21.60
2019-05-05T07:37:25.003Z,21.60
2019-05-05T07:39:54.575Z,21.60
2019-05-05T07:42:24.336Z,21.60
2019-05-05T07:44:54.711Z,21.60
2019-05-05T07:47:24.081Z,21.60
2019-05-05T07:49:53.614Z,21.60
2019-05-05T07:52:23.747Z,21.60
2019-05-05T07:54:55.073Z,21.60
2019-05-05T07:57:24.038Z,21.60
2019-05-05T07:59:54.069Z,21.60
2019-05-05T08:02:23.746Z,21.60
2019-05-05T08:04:54.439Z,21.60
2019-05-05T08:07:24.938Z,21.60
2019-05-05T08:09:54.132Z,21.60
2019-05-05T08:12:24.906Z,21.60
2019-05-05T08:14:54.331Z,21.60
2019-05-05T08:17:41.572Z,21.60
2019-05-05T08:20:23.685Z,21.60
2019-05-05T08:22:53.692Z,21.60
2019-05-05T08:25:36.329Z,21.60
2019-05-05T08:28:14.706Z,21.60
2019-05-05T08:30:46.471Z,21.50
2019-05-05T08:33:15.637Z,21.60
2019-05-05T08:35:45.010Z,21.60
2019-05-05T08:38:14.350Z,21.60
2019-05-05T08:40:43.987Z,21.60
2019-05-05T08:43:14.313Z,21.60
2019-05-05T08:45:44.389Z,21.60
2019-05-05T08:48:14.329Z,21.60
2019-05-05T08:50:46.120Z,21.60
2019-05-05T08:53:15.442Z,21.60
2019-05-05T08:55:44.636Z,21.60
2019-05-05T08:58:14.877Z,21.60
2019-05-05T09:00:44.565Z,21.60
2019-05-05T09:03:14.066Z,21.60
2019-05-05T09:05:43.866Z,21.60
2019-05-05T09:08:13.833Z,21.60
2019-05-05T09:10:44.812Z,21.50
2019-05-05T09:13:14.524Z,21.60
2019-05-05T09:15:44.429Z,21.60
2019-05-05T09:18:14.694Z,21.60
2019-05-05T09:20:44.573Z,21.60
2019-05-05T09:23:15.016Z,21.50
2019-05-05T09:25:46.068Z,21.50
2019-05-05T09:28:19.719Z,21.50
2019-05-05T09:30:50.533Z,21.50
2019-05-05T09:33:19.684Z,21.50
2019-05-05T09:35:48.854Z,21.50
2019-05-05T09:38:18.071Z,21.50
2019-05-05T09:40:47.316Z,21.50
2019-05-05T09:43:16.573Z,21.60
2019-05-05T09:45:45.852Z,21.50
2019-05-05T09:48:15.094Z,21.50
2019-05-05T09:50:44.252Z,21.50
2019-05-05T09:53:14.587Z,21.60
2019-05-05T09:55:45.085Z,21.50
2019-05-05T09:58:14.377Z,21.50
2019-05-05T10:00:45.214Z,21.50
2019-05-05T10:03:14.656Z,21.60
2019-05-05T10:05:44.985Z,21.50
2019-05-05T10:08:14.422Z,21.50
2019-05-05T10:10:44.373Z,21.50
2019-05-05T10:13:14.930Z,21.50
2019-05-05T10:15:45.418Z,21.50
2019-05-05T10:18:14.567Z,21.50
2019-05-05T10:20:43.730Z,21.50
2019-05-05T10:23:14.305Z,21.50
2019-05-05T10:25:48.034Z,21.50
2019-05-05T10:28:17.248Z,21.50
2019-05-05T10:30:46.530Z,21.50
2019-05-05T10:33:15.770Z,21.50
2019-05-05T10:35:45.011Z,21.50
2019-05-05T10:38:15.307Z,21.50
2019-05-05T10:40:44.847Z,21.50
2019-05-05T10:43:15.053Z,21.40
2019-05-05T10:45:44.493Z,21.40
2019-05-05T10:48:14.525Z,21.50
2019-05-05T10:50:44.414Z,21.40
2019-05-05T10:53:13.892Z,21.50
2019-05-05T10:55:45.033Z,21.50
2019-05-05T10:58:14.143Z,21.50
2019-05-05T11:00:45.679Z,21.50
2019-05-05T11:03:15.481Z,21.50
2019-05-05T11:05:45.243Z,21.50
2019-05-05T11:08:14.694Z,21.50
2019-05-05T11:10:44.995Z,21.50
2019-05-05T11:13:14.634Z,21.50
2019-05-05T11:15:44.454Z,21.50
2019-05-05T11:18:14.838Z,21.50
2019-05-05T11:20:44.991Z,21.50
2019-05-05T11:23:15.081Z,21.40
2019-05-05T11:25:44.687Z,21.40
2019-05-05T11:28:14.049Z,21.40
2019-05-05T11:30:45.704Z,21.40
2019-05-05T11:33:34.472Z,21.40
2019-05-05T11:36:13.482Z,21.50
2019-05-05T11:38:44.389Z,21.40
2019-05-05T11:41:14.343Z,21.50
2019-05-05T11:43:43.886Z,21.50
2019-05-05T11:46:14.080Z,21.40
2019-05-05T11:48:44.012Z,21.50
2019-05-05T11:51:15.114Z,21.50
2019-05-05T11:53:44.896Z,21.50
2019-05-05T11:56:15.208Z,21.50
2019-05-05T11:58:44.516Z,21.40
2019-05-05T12:01:14.068Z,21.40
2019-05-05T12:03:44.328Z,21.50
2019-05-05T12:06:14.739Z,21.40
2019-05-05T12:08:45.856Z,21.40
2019-05-05T12:11:15.489Z,21.40
2019-05-05T12:13:44.807Z,21.40
2019-05-05T12:16:15.711Z,21.40
2019-05-05T12:18:45.050Z,21.40
2019-05-05T12:21:14.304Z,21.40
2019-05-05T12:23:44.431Z,21.40
2019-05-05T12:26:27.768Z,21.40
2019-05-05T12:28:58.647Z,21.40
2019-05-05T12:31:29.517Z,21.40
2019-05-05T12:33:58.790Z,21.40
2019-05-05T12:36:27.956Z,21.40
2019-05-05T12:38:57.120Z,21.40
2019-05-05T12:41:26.314Z,21.40
2019-05-05T12:43:55.470Z,21.50
2019-05-05T12:46:33.694Z,21.40
2019-05-05T12:49:04.900Z,21.40
2019-05-05T12:51:34.393Z,21.40
2019-05-05T12:54:04.513Z,21.40
2019-05-05T12:56:34.157Z,21.40
2019-05-05T12:59:05.089Z,21.40
2019-05-05T13:01:35.888Z,21.40
2019-05-05T13:04:05.125Z,21.40
2019-05-05T13:06:34.718Z,21.40
2019-05-05T13:09:05.952Z,21.40
2019-05-05T13:11:36.465Z,21.40
2019-05-05T13:14:05.773Z,21.40
2019-05-05T13:16:34.995Z,21.40
2019-05-05T13:19:06.380Z,21.40
2019-05-05T13:21:39.952Z,21.40
2019-05-05T13:24:16.851Z,21.40
2019-05-05T13:26:47.798Z,21.40
2019-05-05T13:29:17.083Z,21.40
2019-05-05T13:31:46.364Z,21.40
2019-05-05T13:34:15.511Z,21.40
2019-05-05T13:36:44.693Z,21.30
2019-05-05T13:39:14.531Z,21.30
2019-05-05T13:41:44.902Z,21.40
2019-05-05T13:44:19.815Z,21.30
2019-05-05T13:46:48.968Z,21.30
2019-05-05T13:49:19.844Z,21.30
2019-05-05T13:51:49.038Z,21.40
2019-05-05T13:54:18.218Z,21.30
2019-05-05T13:56:47.461Z,21.30
2019-05-05T13:59:16.790Z,21.40
2019-05-05T14:01:46.057Z,21.40
2019-05-05T14:04:15.276Z,21.40
2019-05-05T14:06:46.256Z,21.30
2019-05-05T14:09:16.625Z,21.40
2019-05-05T14:11:45.852Z,21.30
2019-05-05T14:14:15.008Z,21.30
2019-05-05T14:16:44.678Z,21.30
2019-05-05T14:19:14.752Z,21.30
2019-05-05T14:21:44.700Z,21.30
2019-05-05T14:24:33.923Z,21.30
2019-05-05T14:27:04.457Z,21.30
2019-05-05T14:29:53.754Z,21.30
2019-05-05T14:32:24.551Z,21.30
2019-05-05T14:35:03.864Z,21.30
2019-05-05T14:37:34.159Z,21.30
2019-05-05T14:40:05.485Z,21.30
2019-05-05T14:42:34.783Z,21.30
2019-05-05T14:45:05.859Z,21.30
2019-05-05T14:47:35.088Z,21.30
2019-05-05T14:50:05.930Z,21.30
2019-05-05T14:52:35.195Z,21.30
2019-05-05T14:55:06.385Z,21.30
2019-05-05T14:57:35.556Z,21.30
2019-05-05T15:00:06.680Z,21.30
2019-05-05T15:02:36.547Z,21.30
2019-05-05T15:05:24.473Z,21.30
2019-05-05T15:08:01.586Z,21.30
2019-05-05T15:10:50.508Z,21.30
2019-05-05T15:13:21.401Z,21.30
2019-05-05T15:15:50.659Z,21.30
2019-05-05T15:18:19.825Z,21.30
2019-05-05T15:20:51.724Z,21.20
2019-05-05T15:23:19.922Z,21.20
2019-05-05T15:25:49.173Z,21.30
2019-05-05T15:28:18.438Z,21.20
2019-05-05T15:30:47.669Z,21.20
2019-05-05T15:33:16.833Z,21.20
2019-05-05T15:35:46.673Z,21.20
2019-05-05T15:38:15.964Z,21.20
2019-05-05T15:40:47.944Z,21.20
2019-05-05T15:43:16.116Z,21.20
2019-05-05T15:45:45.566Z,21.20
2019-05-05T15:48:14.811Z,21.20
2019-05-05T15:50:44.468Z,21.20
2019-05-05T15:53:14.384Z,21.20
2019-05-05T15:55:44.514Z,21.20
2019-05-05T15:58:14.170Z,21.10
2019-05-05T16:00:44.530Z,21.10
2019-05-05T16:03:13.760Z,21.10
2019-05-05T16:05:44.915Z,21.10
2019-05-05T16:08:14.243Z,21.10
2019-05-05T16:10:43.994Z,21.10
2019-05-05T16:13:16.389Z,21.10
2019-05-05T16:15:47.175Z,21.10
2019-05-05T16:18:24.059Z,21.10
2019-05-05T16:20:55.039Z,21.10
2019-05-05T16:23:25.971Z,21.10
2019-05-05T16:25:55.161Z,21.10
2019-05-05T16:28:25.132Z,21.10
2019-05-05T16:30:56.190Z,21.10
2019-05-05T16:33:25.333Z,21.10
2019-05-05T16:35:54.519Z,21.10
2019-05-05T16:38:24.114Z,21.10
2019-05-05T16:40:53.831Z,21.10
2019-05-05T16:43:24.701Z,21.00
2019-05-05T16:45:54.157Z,21.10
2019-05-05T16:48:25.282Z,21.00
2019-05-05T16:50:54.282Z,21.10
2019-05-05T16:53:36.762Z,21.10
2019-05-05T16:56:08.398Z,21.10
2019-05-05T16:58:37.819Z,21.10
2019-05-05T17:01:08.742Z,21.10
2019-05-05T17:03:37.976Z,21.20
2019-05-05T17:06:07.152Z,21.20
2019-05-05T17:08:36.385Z,21.20
2019-05-05T17:11:05.590Z,21.20
2019-05-05T17:13:36.428Z,21.20
2019-05-05T17:16:07.337Z,21.20
2019-05-05T17:18:38.156Z,21.10
2019-05-05T17:21:08.990Z,21.10
2019-05-05T17:23:38.176Z,21.10
2019-05-05T17:26:07.351Z,21.10
2019-05-05T17:28:36.548Z,21.10
2019-05-05T17:31:05.752Z,21.10
2019-05-05T17:33:35.077Z,21.10
2019-05-05T17:36:04.678Z,21.10
2019-05-05T17:38:34.294Z,21.10
2019-05-05T17:41:10.915Z,21.10
2019-05-05T17:43:41.908Z,21.10
2019-05-05T17:46:18.482Z,21.10
2019-05-05T17:48:49.394Z,21.10
2019-05-05T17:51:26.222Z,21.10
2019-05-05T17:53:57.024Z,21.10
2019-05-05T17:56:27.280Z,21.10
2019-05-05T17:58:56.454Z,21.10
2019-05-05T18:01:25.775Z,21.10
2019-05-05T18:03:54.979Z,21.10
2019-05-05T18:06:28.859Z,21.10
2019-05-05T18:09:14.625Z,21.10
2019-05-05T18:11:45.475Z,21.10
2019-05-05T18:14:28.374Z,21.10
2019-05-05T18:16:57.545Z,21.10
2019-05-05T18:19:26.780Z,21.10
2019-05-05T18:21:56.110Z,21.10
2019-05-05T18:24:25.281Z,21.10
2019-05-05T18:26:54.562Z,21.10
2019-05-05T18:29:24.972Z,21.10
2019-05-05T18:31:54.809Z,21.00
2019-05-05T18:34:23.989Z,21.10
2019-05-05T18:36:54.487Z,21.10
2019-05-05T18:39:24.724Z,21.10
2019-05-05T18:41:55.799Z,21.10
2019-05-05T18:44:33.500Z,21.10
2019-05-05T18:47:15.767Z,21.10
2019-05-05T18:49:43.331Z,21.10
2019-05-05T18:52:13.831Z,21.10
2019-05-05T18:54:43.620Z,21.10
2019-05-05T18:57:13.078Z,21.00
2019-05-05T18:59:44.489Z,21.10
2019-05-05T19:02:34.658Z,21.10
2019-05-05T19:05:07.819Z,21.00
2019-05-05T19:07:56.143Z,21.00
2019-05-05T19:10:25.415Z,21.10
2019-05-05T19:12:54.819Z,21.00
2019-05-05T19:15:24.392Z,21.00
2019-05-05T19:17:54.065Z,21.00
2019-05-05T19:20:44.442Z,21.00
2019-05-05T19:23:14.740Z,21.00
2019-05-05T19:25:44.892Z,21.00
2019-05-05T19:28:14.355Z,21.00
2019-05-05T19:30:44.138Z,21.00
2019-05-05T19:33:15.541Z,21.00
2019-05-05T19:35:47.272Z,21.00
2019-05-05T19:38:15.901Z,21.00
2019-05-05T19:40:45.305Z,21.00
2019-05-05T19:43:14.682Z,21.00
2019-05-05T19:45:44.824Z,21.00
2019-05-05T19:48:14.947Z,21.00
2019-05-05T19:50:45.983Z,21.00
2019-05-05T19:53:27.352Z,21.00
2019-05-05T19:55:56.710Z,21.00
2019-05-05T19:58:27.006Z,21.00
2019-05-05T20:00:57.922Z,21.00
2019-05-05T20:03:27.252Z,21.00
2019-05-05T20:05:56.585Z,21.00
2019-05-05T20:08:39.723Z,21.00
2019-05-05T20:10:56.808Z,21.00
2019-05-05T20:13:26.181Z,21.00
2019-05-05T20:16:00.083Z,21.00
2019-05-05T20:18:29.261Z,21.00
2019-05-05T20:21:03.986Z,21.00
2019-05-05T20:23:29.332Z,21.00
2019-05-05T20:25:58.501Z,21.00
2019-05-05T20:28:27.779Z,21.00
2019-05-05T20:30:56.965Z,21.00
2019-05-05T20:33:30.378Z,21.00
2019-05-05T20:36:03.959Z,21.00
2019-05-05T20:38:37.516Z,21.00
2019-05-05T20:41:16.492Z,21.00
2019-05-05T20:43:45.700Z,20.90
2019-05-05T20:46:14.947Z,20.90
2019-05-05T20:48:45.259Z,20.90
2019-05-05T20:51:14.509Z,20.90
2019-05-05T20:53:44.790Z,20.90
2019-05-05T20:56:15.037Z,20.90
2019-05-05T20:58:44.446Z,20.90
2019-05-05T21:01:14.108Z,20.90
2019-05-05T21:03:43.606Z,20.90
2019-05-05T21:06:13.846Z,20.90
2019-05-05T21:08:44.010Z,20.90
2019-05-05T21:11:14.155Z,20.90
2019-05-05T21:13:45.206Z,20.90
2019-05-05T21:16:14.585Z,20.90
2019-05-05T21:18:43.934Z,20.90
2019-05-05T21:21:14.727Z,20.90
2019-05-05T21:23:48.532Z,20.90
2019-05-05T21:26:19.417Z,20.90
2019-05-05T21:28:48.682Z,20.90
2019-05-05T21:31:17.893Z,20.90
2019-05-05T21:33:47.067Z,20.90
2019-05-05T21:36:16.299Z,20.90
2019-05-05T21:38:45.451Z,20.90
2019-05-05T21:41:14.713Z,20.90
2019-05-05T21:43:44.883Z,20.80
2019-05-05T21:46:14.236Z,20.80
2019-05-05T21:48:44.877Z,20.90
2019-05-05T21:51:15.783Z,20.80
2019-05-05T21:53:49.393Z,20.90
2019-05-05T21:56:24.790Z,20.90
2019-05-05T21:58:55.230Z,20.90
2019-05-05T22:01:27.379Z,20.90
2019-05-05T22:03:55.845Z,20.80
2019-05-05T22:06:25.048Z,20.80
2019-05-05T22:08:54.267Z,20.80
2019-05-05T22:11:24.316Z,20.80
2019-05-05T22:13:54.173Z,20.80
2019-05-05T22:16:23.508Z,20.80
2019-05-05T22:18:54.119Z,20.80
2019-05-05T22:21:27.963Z,20.80
2019-05-05T22:24:16.013Z,20.80
2019-05-05T22:26:45.785Z,20.80
2019-05-05T22:29:17.007Z,20.80
2019-05-05T22:31:45.856Z,20.80
2019-05-05T22:34:15.133Z,20.80
2019-05-05T22:36:44.955Z,20.80
2019-05-05T22:39:16.846Z,20.80
2019-05-05T22:41:45.256Z,20.80
2019-05-05T22:44:14.431Z,20.80
2019-05-05T22:46:43.692Z,20.80
2019-05-05T22:49:14.746Z,20.80
2019-05-05T22:51:44.703Z,20.80
2019-05-05T22:54:14.898Z,20.80
2019-05-05T22:56:44.921Z,20.80
2019-05-05T22:59:14.352Z,20.80
2019-05-05T23:01:43.594Z,20.80
2019-05-05T23:04:34.779Z,20.70
2019-05-05T23:07:06.229Z,20.80
2019-05-05T23:09:35.376Z,20.80
2019-05-05T23:12:04.580Z,20.70
2019-05-05T23:14:34.322Z,20.70
2019-05-05T23:17:05.328Z,20.70
2019-05-05T23:19:41.897Z,20.70
2019-05-05T23:22:19.773Z,20.80
2019-05-05T23:24:50.567Z,20.70
2019-05-05T23:27:37.659Z,20.70
2019-05-05T23:30:07.262Z,20.70
2019-05-05T23:32:36.428Z,20.70
2019-05-05T23:35:05.659Z,20.70
2019-05-05T23:37:35.019Z,20.70
2019-05-05T23:40:05.325Z,20.70
2019-05-05T23:42:34.537Z,20.70
2019-05-05T23:45:05.536Z,20.70
2019-05-05T23:47:34.701Z,20.70
2019-05-05T23:50:05.318Z,20.70
2019-05-05T23:52:35.007Z,20.70
2019-05-05T23:55:05.960Z,20.70
2019-05-05T23:57:35.242Z,20.70
